createdAt,value
2023-05-09T00:01:53.826Z,3.42
2023-05-09T00:12:15.752Z,3.35
2023-05-09T00:22:40.567Z,3.55
2023-05-09T00:33:02.536Z,3.63
2023-05-09T00:43:25.712Z,3.45
2023-05-09T00:53:47.591Z,3.28
2023-05-09T01:04:11.436Z,3.10
2023-05-09T01:14:39.812Z,3.70
2023-05-09T01:25:21.890Z,3.50
2023-05-09T01:35:47.893Z,3.80
2023-05-09T01:46:11.058Z,2.78
2023-05-09T01:56:37.645Z,2.88
2023-05-09T02:07:01.347Z,2.42
2023-05-09T02:17:24.636Z,2.45
2023-05-09T02:27:47.808Z,2.70
2023-05-09T02:38:11.370Z,2.55
2023-05-09T02:48:32.815Z,2.25
2023-05-09T02:58:56.974Z,2.13
2023-05-09T03:09:20.080Z,2.72
2023-05-09T03:19:43.742Z,2.72
2023-05-09T03:30:07.010Z,3.00
2023-05-09T03:40:30.481Z,3.25
2023-05-09T03:51:00.411Z,2.90
2023-05-09T04:01:26.415Z,3.03
2023-05-09T04:11:49.572Z,2.90
2023-05-09T04:22:12.712Z,3.08
2023-05-09T04:32:35.715Z,3.05
2023-05-09T04:42:58.990Z,3.40
2023-05-09T05:03:47.782Z,3.05
2023-05-09T05:14:09.706Z,3.25
2023-05-09T05:24:32.988Z,2.90
2023-05-09T05:34:55.312Z,3.15
2023-05-09T05:45:18.508Z,2.75
2023-05-09T05:55:45.917Z,3.00
2023-05-09T06:06:09.876Z,2.95
2023-05-09T06:16:31.295Z,3.20
2023-05-09T06:26:54.598Z,2.97
2023-05-09T06:37:16.603Z,3.25
2023-05-09T06:47:39.547Z,3.17
2023-05-09T06:58:01.461Z,3.00
2023-05-09T07:08:24.424Z,3.20
2023-05-09T07:18:46.290Z,3.15
2023-05-09T07:29:09.571Z,3.65
2023-05-09T07:39:31.110Z,3.28
2023-05-09T07:49:54.057Z,2.70
2023-05-09T08:00:16.580Z,2.72
2023-05-09T08:10:39.660Z,2.72
2023-05-09T08:21:01.298Z,2.80
2023-05-09T08:31:24.307Z,2.40
2023-05-09T08:41:46.389Z,2.40
2023-05-09T08:52:11.386Z,2.50
2023-05-09T09:02:34.257Z,2.50
2023-05-09T09:12:59.179Z,2.58
2023-05-09T09:23:23.729Z,2.92
2023-05-09T09:33:47.167Z,2.60
2023-05-09T09:44:09.462Z,2.80
2023-05-09T09:54:40.159Z,2.60
2023-05-09T10:05:14.747Z,2.78
2023-05-09T10:15:53.228Z,2.35
2023-05-09T10:26:23.102Z,2.80
2023-05-09T10:37:04.097Z,2.72
2023-05-09T10:47:28.033Z,2.47
2023-05-09T10:57:55.531Z,2.47
2023-05-09T11:08:22.319Z,2.40
2023-05-09T11:18:56.924Z,3.38
2023-05-09T11:40:44.873Z,2.70
2023-05-09T11:51:07.960Z,2.20
2023-05-09T12:01:31.590Z,2.38
2023-05-09T12:12:00.736Z,3.00
2023-05-09T12:22:36.180Z,2.72
2023-05-09T12:44:37.361Z,2.83
2023-05-09T12:55:38.511Z,2.80
2023-05-09T13:18:20.779Z,2.90
2023-05-09T13:29:27.925Z,2.40
2023-05-09T13:40:21.137Z,2.47
2023-05-09T13:51:10.368Z,2.80
2023-05-09T14:02:05.667Z,2.75
2023-05-09T14:12:52.942Z,2.30
2023-05-09T14:23:17.468Z,2.75
2023-05-09T14:33:40.971Z,2.58
2023-05-09T14:44:05.526Z,2.50
2023-05-09T14:54:31.359Z,2.65
2023-05-09T15:04:53.850Z,2.28
2023-05-09T15:15:19.118Z,2.60
2023-05-09T15:27:31.558Z,2.63
2023-05-09T15:37:46.503Z,2.70
2023-05-09T15:48:09.716Z,2.28
2023-05-09T15:58:33.149Z,2.75
2023-05-09T16:08:58.521Z,2.50
2023-05-09T16:19:22.296Z,2.63
2023-05-09T16:29:44.481Z,2.42
2023-05-09T16:40:08.436Z,2.85
2023-05-09T16:50:30.016Z,2.75
2023-05-09T17:00:52.913Z,2.63
2023-05-09T17:11:14.842Z,2.87
2023-05-09T17:21:41.539Z,2.70
2023-05-09T17:32:10.295Z,3.53
2023-05-09T17:42:33.619Z,2.80
2023-05-09T17:52:56.955Z,2.70
2023-05-09T18:03:20.519Z,2.60
2023-05-09T18:13:47.986Z,2.53
2023-05-09T18:24:11.294Z,2.80
2023-05-09T18:34:32.862Z,2.58
2023-05-09T18:44:56.144Z,2.80
2023-05-09T18:55:19.747Z,2.60
2023-05-09T19:05:43.890Z,3.03
2023-05-09T19:16:06.766Z,2.70
2023-05-09T19:26:29.787Z,2.80
2023-05-09T19:36:51.518Z,2.83
2023-05-09T19:47:14.954Z,3.05
2023-05-09T19:57:36.364Z,2.80
2023-05-09T20:07:59.073Z,2.88
2023-05-09T20:18:20.566Z,2.90
2023-05-09T20:28:43.543Z,2.60
2023-05-09T20:39:05.180Z,2.88
2023-05-09T20:49:28.293Z,3.20
2023-05-09T20:59:49.860Z,3.13
2023-05-09T21:10:13.028Z,3.17
2023-05-09T21:20:34.834Z,2.53
2023-05-09T21:30:57.709Z,3.58
2023-05-09T21:41:21.868Z,3.92
2023-05-09T21:51:44.873Z,3.70
2023-05-09T22:02:06.753Z,3.28
2023-05-09T22:12:29.706Z,4.00
2023-05-09T22:34:35.843Z,4.10
2023-05-09T22:57:07.972Z,4.93
2023-05-09T23:07:54.787Z,4.60
2023-05-09T23:18:18.276Z,4.40
2023-05-09T23:28:39.908Z,4.30
2023-05-09T23:39:05.791Z,5.25
2023-05-09T23:49:27.572Z,5.30
2023-05-09T23:59:50.559Z,3.72
